首页
METAR-TAF:

METAR-TAF

机场 :

Gore Bay, 安大略省, 加拿大

纬度: 45-53N, 经度: 082-34W, 海拔: 193米

当前天气观测

该预报发布于51分钟前的16:00 UTC
风速11节,风向西转西南
温度 21°C
湿度 73%
气压 1014 hPa
能見度: 14.5公里
天空无云

METAR: CYZE 261600Z AUTO 25011KT 9SM CLR 21/16 A2993 RMK SLP138 DENSITY ALT 1400FT

时间: 12:51 (16:51 UTC)

预报

该预报发布于3小时和13分钟前的13:38 UTC
预报有效从26日的 14点(UTC)到 26日的 22点(UTC)
风速12节,风向西转西南,有时为22节阵风
能見度: 10公里
少量云层高于3000英尺

TAF: CYZE 261338Z 2614/2622 25012G22KT P6SM FEW030 RMK FCST BASED ON AUTO OBS. NXT FCST BY 262000Z

超过4000个机场的气象观测和天气预报(METAR&TAF报告)。

可查询的气象台以黄色和红色小点在地图上表示。

将鼠标移到小点上方,可查看气象台名称。

然后点击查看天气观测和预报。

如需切换地图:点击带黑十字的绿色按钮放大地图;点击带横线的绿色按钮缩小地图;或者点击绿色箭头查看邻近地区的地图。


METAR-TAF: